Time;durP1;ratioP1;P1;durP2;ratioP2;P2;SDS_P1;SDS_P2;PMS_P1;PMS_P2;Temp;Humidity;BMP_temperature;BMP_pressure;BME280_temperature;BME280_humidity;BME280_pressure;Samples;Min_cycle;Max_cycle;Signal;HPM_P1;HPM_P2
2023/02/09 00:05:04;;;;;;;15.32;10.40;;;;;;;-4.22;100.00;100135.50;15278381;19;20034;-46
2023/02/09 00:10:35;;;;;;;12.27;10.00;;;;;;;-4.32;100.00;100148.84;15273077;19;20021;-47
2023/02/09 00:16:04;;;;;;;13.75;10.93;;;;;;;-4.43;100.00;100135.84;15274284;19;20026;-45
2023/02/09 00:21:28;;;;;;;12.52;10.27;;;;;;;-4.52;100.00;100137.75;15275339;19;20090;-47
2023/02/09 00:26:53;;;;;;;12.80;10.73;;;;;;;-4.56;100.00;100129.94;15274676;19;20538;-51
2023/02/09 00:32:20;;;;;;;12.02;9.30;;;;;;;-4.60;100.00;100123.84;15277786;19;20015;-47
2023/02/09 00:37:45;;;;;;;13.07;10.10;;;;;;;-4.64;100.00;100107.22;15274109;19;20037;-47
2023/02/09 00:43:10;;;;;;;12.15;9.88;;;;;;;-4.68;100.00;100108.19;15274971;19;20037;-46
2023/02/09 00:48:38;;;;;;;12.43;9.85;;;;;;;-4.74;100.00;100108.25;15267987;19;20412;-47
2023/02/09 00:54:03;;;;;;;13.43;9.73;;;;;;;-4.78;100.00;100110.97;15274789;19;20064;-46
2023/02/09 00:59:29;;;;;;;14.20;9.82;;;;;;;-4.81;100.00;100096.97;15269676;19;20015;-50
2023/02/09 01:04:56;;;;;;;14.25;10.05;;;;;;;-4.81;100.00;100099.59;15275046;19;20380;-45
2023/02/09 01:10:27;;;;;;;13.43;10.13;;;;;;;-4.85;100.00;100107.53;15271044;19;20371;-49
2023/02/09 01:15:52;;;;;;;12.77;10.05;;;;;;;-4.89;100.00;100116.38;15272135;19;20019;-46
2023/02/09 01:21:22;;;;;;;14.15;10.65;;;;;;;-4.92;100.00;100108.53;15265326;19;20085;-50
2023/02/09 01:26:48;;;;;;;14.00;10.98;;;;;;;-4.97;100.00;100093.69;15269454;19;20479;-45
2023/02/09 01:32:14;;;;;;;12.98;10.50;;;;;;;-5.00;100.00;100104.25;15271407;19;20025;-50
2023/02/09 01:37:41;;;;;;;14.15;10.32;;;;;;;-5.06;100.00;100092.97;15268373;19;20014;-46
2023/02/09 01:43:06;;;;;;;13.88;10.52;;;;;;;-5.09;100.00;100099.13;15271019;19;20025;-46
2023/02/09 01:48:32;;;;;;;13.35;9.95;;;;;;;-5.12;100.00;100083.41;15268522;19;20023;-47
2023/02/09 01:54:00;;;;;;;12.35;10.00;;;;;;;-5.15;100.00;100078.19;15266082;19;20086;-46
2023/02/09 01:59:25;;;;;;;11.95;9.63;;;;;;;-5.14;100.00;100075.53;15264442;19;20025;-49
2023/02/09 02:04:53;;;;;;;11.80;9.50;;;;;;;-5.16;100.00;100076.44;15271210;19;20014;-50
2023/02/09 02:10:21;;;;;;;12.23;9.90;;;;;;;-5.15;100.00;100070.31;15266759;19;20026;-46
2023/02/09 02:15:56;;;;;;;12.57;9.48;;;;;;;-5.16;100.00;100068.56;15271496;19;20014;-45
2023/02/09 02:22:04;;;;;;;12.15;9.20;;;;;;;-5.20;100.00;100074.75;15263933;19;20018;-48
2023/02/09 02:27:38;;;;;;;12.23;9.57;;;;;;;-5.26;100.00;100060.81;15259521;19;20030;-48
2023/02/09 02:33:21;;;;;;;12.07;9.43;;;;;;;-5.30;100.00;100048.59;15270805;19;20034;-46
2023/02/09 02:38:57;;;;;;;11.80;9.13;;;;;;;-5.33;100.00;100055.66;15263990;19;20027;-48
2023/02/09 02:44:22;;;;;;;12.52;9.05;;;;;;;-5.39;100.00;100048.72;15271183;19;20018;-49
2023/02/09 02:49:54;;;;;;;11.05;9.18;;;;;;;-5.40;100.00;100041.75;15264228;19;20019;-46
2023/02/09 02:55:23;;;;;;;11.60;8.85;;;;;;;-5.46;100.00;100040.06;15267002;19;20032;-49
2023/02/09 03:00:51;;;;;;;11.68;9.10;;;;;;;-5.50;100.00;100037.50;15260344;19;20032;-45
2023/02/09 03:06:26;;;;;;;12.00;8.80;;;;;;;-5.51;100.00;100025.25;15279655;19;20018;-46
2023/02/09 03:11:56;;;;;;;13.30;8.63;;;;;;;-5.57;100.00;100026.22;15282296;19;20446;-51
2023/02/09 03:17:35;;;;;;;10.77;8.70;;;;;;;-5.57;100.00;100024.44;15283324;19;20029;-48
2023/02/09 03:23:06;;;;;;;11.63;9.40;;;;;;;-5.56;100.00;100035.81;15283184;19;20010;-45
2023/02/09 03:28:33;;;;;;;13.40;9.13;;;;;;;-5.57;100.00;100029.69;15274039;19;20018;-51
2023/02/09 03:33:59;;;;;;;10.25;8.75;;;;;;;-5.60;100.00;100028.88;15284014;19;20593;-45
2023/02/09 03:39:27;;;;;;;11.20;8.90;;;;;;;-5.63;100.00;100026.28;15276617;19;20018;-48
2023/02/09 03:44:52;;;;;;;11.43;8.85;;;;;;;-5.65;100.00;100031.56;15282578;19;20018;-46
2023/02/09 03:50:17;;;;;;;11.13;8.05;;;;;;;-5.67;100.00;100024.59;15282476;19;20023;-46
2023/02/09 03:55:46;;;;;;;11.57;9.05;;;;;;;-5.67;100.00;100020.19;15280535;19;20033;-48
2023/02/09 04:01:12;;;;;;;13.73;9.77;;;;;;;-5.69;100.00;100032.47;15270140;19;20057;-50
2023/02/09 04:06:37;;;;;;;11.52;9.05;;;;;;;-5.75;100.00;100027.31;15278807;19;20545;-46
2023/02/09 04:12:05;;;;;;;11.27;8.98;;;;;;;-5.80;100.00;100021.22;15277680;19;20536;-49
2023/02/09 04:17:30;;;;;;;11.07;8.90;;;;;;;-5.88;100.00;100013.47;15278175;19;20019;-45
2023/02/09 04:22:54;;;;;;;10.80;8.95;;;;;;;-5.95;100.00;100002.19;15273548;19;20019;-49
2023/02/09 04:28:21;;;;;;;11.00;8.80;;;;;;;-6.01;100.00;100001.41;15273980;19;20022;-45
2023/02/09 04:33:46;;;;;;;11.88;9.00;;;;;;;-6.06;100.00;99990.97;15274517;19;20498;-46
2023/02/09 04:39:17;;;;;;;11.18;8.60;;;;;;;-6.10;100.00;99984.00;15272290;19;20014;-47
2023/02/09 04:44:44;;;;;;;11.63;9.45;;;;;;;-6.13;100.00;99981.41;15277658;19;20025;-46
2023/02/09 04:50:09;;;;;;;12.52;8.38;;;;;;;-6.15;100.00;99988.44;15275611;19;20019;-44
2023/02/09 04:55:34;;;;;;;10.82;9.18;;;;;;;-6.19;100.00;99979.72;15275473;19;20026;-47
2023/02/09 05:01:03;;;;;;;11.27;8.50;;;;;;;-6.23;100.00;99984.16;15276017;19;20010;-47
2023/02/09 05:06:28;;;;;;;11.50;9.07;;;;;;;-6.25;100.00;99979.81;15274937;19;20025;-46
2023/02/09 05:11:52;;;;;;;11.95;8.70;;;;;;;-6.32;100.00;99970.25;15302656;19;20019;-46
2023/02/09 05:17:20;;;;;;;11.00;8.95;;;;;;;-6.38;100.00;99976.44;15276291;19;20064;-48
2023/02/09 05:22:44;;;;;;;10.75;8.43;;;;;;;-6.40;100.00;99986.06;15267673;19;20041;-46
2023/02/09 05:28:09;;;;;;;10.23;8.60;;;;;;;-6.46;100.00;99988.78;15268026;19;20018;-45
2023/02/09 05:33:36;;;;;;;12.10;8.82;;;;;;;-6.50;100.00;99993.19;15271507;19;20026;-45
2023/02/09 05:39:01;;;;;;;11.57;9.18;;;;;;;-6.52;100.00;99987.06;15260417;19;21075;-46
2023/02/09 05:44:25;;;;;;;12.07;9.35;;;;;;;-6.55;100.00;99988.00;15274594;19;20017;-47
2023/02/09 05:49:53;;;;;;;10.27;8.90;;;;;;;-6.56;100.00;99986.25;15269618;19;20774;-46
2023/02/09 05:55:17;;;;;;;11.65;9.48;;;;;;;-6.53;100.00;99977.47;15273337;19;20014;-47
2023/02/09 06:00:42;;;;;;;10.98;8.52;;;;;;;-6.55;100.00;99974.88;15269914;19;20491;-49
2023/02/09 06:06:09;;;;;;;11.73;9.43;;;;;;;-6.60;100.00;99962.69;15271800;19;20018;-47
2023/02/09 06:11:41;;;;;;;11.07;8.70;;;;;;;-6.59;100.00;99964.44;15266157;19;20033;-46
2023/02/09 06:17:06;;;;;;;11.20;8.60;;;;;;;-6.59;100.00;99972.31;15270288;19;20021;-45
2023/02/09 06:22:33;;;;;;;11.43;8.98;;;;;;;-6.49;100.00;99976.56;15266900;19;20019;-45
2023/02/09 06:27:58;;;;;;;11.13;8.65;;;;;;;-6.40;100.00;99988.69;15268268;19;20018;-46
2023/02/09 06:33:22;;;;;;;11.60;8.60;;;;;;;-6.41;100.00;99998.31;15271394;19;20033;-46
2023/02/09 06:38:49;;;;;;;11.18;8.77;;;;;;;-6.35;100.00;100002.63;15269826;19;20026;-46
2023/02/09 06:44:14;;;;;;;11.90;8.65;;;;;;;-6.38;100.00;100003.56;15280636;19;20106;-47
2023/02/09 06:49:39;;;;;;;10.85;8.73;;;;;;;-6.32;100.00;100014.84;15277170;19;20034;-46
2023/02/09 06:55:06;;;;;;;10.48;8.30;;;;;;;-6.27;100.00;100011.28;15284921;19;20629;-46
2023/02/09 07:00:31;;;;;;;11.55;9.15;;;;;;;-6.27;100.00;100015.69;15282043;19;21169;-46
2023/02/09 07:05:55;;;;;;;10.85;8.95;;;;;;;-6.28;100.00;100025.28;15281918;19;20027;-47
2023/02/09 07:11:29;;;;;;;12.07;9.23;;;;;;;-6.27;100.00;100021.78;15273591;19;20021;-50
2023/02/09 07:16:54;;;;;;;11.00;8.63;;;;;;;-6.25;100.00;100004.28;15272524;19;20746;-48
2023/02/09 07:22:18;;;;;;;11.95;8.73;;;;;;;-6.22;100.00;100009.50;15278412;19;20026;-48
2023/02/09 07:27:47;;;;;;;11.63;8.98;;;;;;;-6.15;100.00;100009.41;15280895;19;20014;-46
2023/02/09 07:33:11;;;;;;;11.30;8.75;;;;;;;-6.10;100.00;100015.50;15281962;19;20093;-47
2023/02/09 07:38:37;;;;;;;10.10;8.48;;;;;;;-6.01;100.00;100018.00;15275619;19;20011;-47
2023/02/09 07:44:04;;;;;;;10.02;7.85;;;;;;;-5.90;100.00;100010.84;15272683;19;20018;-48
2023/02/09 07:49:29;;;;;;;9.52;8.20;;;;;;;-5.80;100.00;100015.97;15268979;19;20034;-47
2023/02/09 07:54:53;;;;;;;10.15;8.10;;;;;;;-5.69;100.00;100011.47;15280237;19;20047;-45
2023/02/09 08:00:22;;;;;;;11.23;8.43;;;;;;;-5.61;100.00;100007.00;15279678;19;20010;-47
2023/02/09 08:05:53;;;;;;;10.73;7.57;;;;;;;-5.51;100.00;100002.47;15280774;19;20589;-45
2023/02/09 08:11:28;;;;;;;11.10;8.02;;;;;;;-5.37;100.00;100004.94;15277982;19;20412;-44
2023/02/09 08:16:50;;;;;;;10.50;8.23;;;;;;;-5.25;100.00;100014.38;15278779;19;20017;-48
2023/02/09 08:22:16;;;;;;;8.95;7.00;;;;;;;-5.11;100.00;100004.53;15270645;19;20018;-45
2023/02/09 08:27:42;;;;;;;9.77;7.68;;;;;;;-4.93;100.00;100009.53;15280015;19;20029;-45
2023/02/09 08:33:09;;;;;;;8.60;6.95;;;;;;;-4.77;100.00;99997.00;15277608;19;20020;-47
2023/02/09 08:38:34;;;;;;;8.63;7.05;;;;;;;-4.60;100.00;100002.84;15272206;19;20077;-47
2023/02/09 08:43:59;;;;;;;7.28;6.20;;;;;;;-4.45;100.00;99991.19;15273604;19;20020;-48
2023/02/09 08:49:26;;;;;;;8.35;6.68;;;;;;;-4.29;100.00;99997.03;15273433;19;20043;-45
2023/02/09 08:54:52;;;;;;;9.18;6.78;;;;;;;-4.12;100.00;99994.06;15273937;19;20019;-50
2023/02/09 09:00:18;;;;;;;7.18;5.95;;;;;;;-4.01;100.00;99972.81;15273436;19;20379;-46
2023/02/09 09:05:47;;;;;;;7.47;5.88;;;;;;;-3.83;100.00;99971.56;15276855;19;20018;-47
2023/02/09 09:11:19;;;;;;;6.13;4.85;;;;;;;-3.51;100.00;99959.47;15273784;19;20019;-46
2023/02/09 09:16:44;;;;;;;6.65;5.35;;;;;;;-3.34;100.00;99968.75;15276591;19;20026;-45
2023/02/09 09:22:11;;;;;;;7.85;5.03;;;;;;;-3.19;100.00;99970.19;15272899;19;20022;-45
2023/02/09 09:27:36;;;;;;;7.10;5.22;;;;;;;-3.04;100.00;99969.78;15267741;19;20532;-46
2023/02/09 09:33:01;;;;;;;7.00;5.63;;;;;;;-2.91;100.00;99978.28;15272901;19;20011;-46
2023/02/09 09:38:28;;;;;;;5.25;4.55;;;;;;;-2.78;100.00;99973.56;15249341;19;20027;-46
2023/02/09 09:43:53;;;;;;;5.30;4.50;;;;;;;-2.58;100.00;99972.19;15269842;19;20145;-46
2023/02/09 09:49:25;;;;;;;5.95;4.78;;;;;;;-2.39;100.00;99962.88;15271072;19;20015;-45
2023/02/09 09:54:53;;;;;;;6.78;4.60;;;;;;;-2.27;100.00;99961.69;15276705;19;20021;-77
2023/02/09 10:00:21;;;;;;;5.65;4.43;;;;;;;-2.11;100.00;99966.53;15284689;19;20024;-79
2023/02/09 10:05:47;;;;;;;5.55;4.40;;;;;;;-1.98;100.00;99972.31;15284917;19;20400;-79
2023/02/09 10:11:16;;;;;;;4.95;4.43;;;;;;;-1.83;100.00;99960.47;15286451;19;20039;-78
2023/02/09 10:16:42;;;;;;;4.53;4.00;;;;;;;-1.67;100.00;99950.31;15303262;19;20017;-77
2023/02/09 10:22:14;;;;;;;6.30;4.20;;;;;;;-1.53;100.00;99952.53;15302269;19;20081;-78
2023/02/09 10:27:41;;;;;;;5.40;4.55;;;;;;;-1.37;100.00;99947.63;15293041;19;20011;-76
2023/02/09 10:33:06;;;;;;;7.38;4.07;;;;;;;-1.25;100.00;99939.31;15298922;19;20017;-77
2023/02/09 10:38:35;;;;;;;6.40;4.07;;;;;;;-1.10;100.00;99919.44;15297303;19;20003;-76
2023/02/09 10:44:07;;;;;;;5.82;4.25;;;;;;;-0.86;100.00;99906.31;15291777;19;20021;-76
2023/02/09 10:49:39;;;;;;;5.28;4.15;;;;;;;-0.63;100.00;99903.72;15295975;19;20024;-76
2023/02/09 10:55:07;;;;;;;4.05;3.47;;;;;;;-0.48;100.00;99889.13;15295679;19;20358;-77
2023/02/09 11:00:45;;;;;;;9.75;4.15;;;;;;;-0.35;100.00;99886.88;15290018;19;20002;-76
2023/02/09 11:06:17;;;;;;;4.60;3.72;;;;;;;-0.21;100.00;99888.16;15298620;19;20039;-76
2023/02/09 11:11:44;;;;;;;5.03;3.75;;;;;;;-0.08;97.23;99872.66;15358483;19;20007;-76
2023/02/09 11:17:18;;;;;;;4.10;3.42;;;;;;;0.03;93.82;99866.97;15287418;19;20018;-77
2023/02/09 11:23:01;;;;;;;4.32;3.28;;;;;;;0.17;98.51;99861.13;15279496;19;20007;-77
2023/02/09 11:28:49;;;;;;;5.28;3.03;;;;;;;0.35;90.87;99863.06;15276899;19;20042;-77
2023/02/09 11:34:27;;;;;;;5.75;3.10;;;;;;;0.40;88.13;99839.03;15281111;19;20021;-77
2023/02/09 11:39:58;;;;;;;3.85;3.00;;;;;;;0.50;82.45;99845.66;15279324;19;20685;-77
2023/02/09 11:45:30;;;;;;;2.83;2.60;;;;;;;0.57;78.26;99833.03;15278294;19;20505;-77
2023/02/09 11:51:13;;;;;;;3.08;2.50;;;;;;;0.68;82.33;99825.50;15279350;19;20017;-77
2023/02/09 11:56:38;;;;;;;3.05;2.70;;;;;;;0.74;79.44;99827.03;15285077;19;20026;-77
2023/02/09 12:02:12;;;;;;;2.88;2.50;;;;;;;0.80;79.20;99810.84;15282317;19;20020;-77
2023/02/09 12:07:49;;;;;;;3.83;2.75;;;;;;;0.92;71.76;99805.00;15276806;19;20037;-77
2023/02/09 12:13:28;;;;;;;3.00;2.70;;;;;;;1.03;71.14;99801.03;15283504;19;20029;-77
2023/02/09 12:18:53;;;;;;;2.95;2.67;;;;;;;1.15;76.30;99794.34;15283294;19;20085;-77
2023/02/09 12:24:39;;;;;;;4.15;2.67;;;;;;;1.22;73.66;99783.38;15281932;19;20114;-77
2023/02/09 12:30:04;;;;;;;4.53;2.40;;;;;;;1.30;72.46;99784.81;15277709;19;20013;-77
2023/02/09 12:35:38;;;;;;;3.17;2.50;;;;;;;1.41;70.95;99784.34;15280708;19;20504;-77
2023/02/09 12:41:14;;;;;;;4.65;2.50;;;;;;;1.57;70.43;99772.06;15273577;19;20114;-77
2023/02/09 12:46:51;;;;;;;3.15;2.75;;;;;;;1.63;66.03;99773.59;15283954;19;20017;-77
2023/02/09 12:52:23;;;;;;;3.13;2.60;;;;;;;1.67;70.00;99777.84;15282467;19;20010;-77
2023/02/09 12:58:00;;;;;;;3.28;2.60;;;;;;;1.85;68.55;99769.00;15278717;19;20011;-77
2023/02/09 13:03:27;;;;;;;3.53;2.63;;;;;;;2.01;66.83;99776.25;15281806;19;20081;-77
2023/02/09 13:08:57;;;;;;;3.47;2.70;;;;;;;2.17;70.50;99781.69;15283145;19;20006;-77
2023/02/09 13:14:26;;;;;;;4.47;2.80;;;;;;;2.36;67.52;99780.75;15349430;19;20015;-76
2023/02/09 13:20:14;;;;;;;2.88;2.40;;;;;;;2.56;64.40;99782.44;15275899;19;20022;-76
2023/02/09 13:25:42;;;;;;;2.63;2.40;;;;;;;2.64;64.67;99777.63;15278746;19;20056;-76
2023/02/09 13:31:09;;;;;;;3.10;2.58;;;;;;;2.70;65.50;99795.94;15275257;19;20014;-76
2023/02/09 13:36:41;;;;;;;4.13;2.50;;;;;;;2.76;64.50;99792.94;15279323;19;20866;-77
2023/02/09 13:42:07;;;;;;;2.55;2.35;;;;;;;2.89;65.40;99789.66;15271420;19;20014;-78
2023/02/09 13:47:35;;;;;;;2.47;2.28;;;;;;;3.03;61.59;99789.81;15278737;19;20024;-76
2023/02/09 13:52:59;;;;;;;2.92;2.70;;;;;;;3.24;63.24;99778.97;15279875;19;20473;-76
2023/02/09 13:58:29;;;;;;;3.78;2.35;;;;;;;3.05;61.68;99777.28;15284158;19;20025;-77
2023/02/09 14:04:00;;;;;;;3.75;2.60;;;;;;;3.20;64.88;99788.94;15341376;19;20015;-76
2023/02/09 14:09:30;;;;;;;5.70;2.33;;;;;;;3.28;63.59;99793.00;15275921;19;20081;-76
2023/02/09 14:20:44;;;;;;;3.38;2.47;;;;;;;3.61;62.88;99773.50;15271944;19;20491;-76
2023/02/09 14:26:14;;;;;;;2.90;2.70;;;;;;;3.87;64.12;99785.38;15274340;19;20018;-76
2023/02/09 14:31:44;;;;;;;3.30;2.67;;;;;;;3.96;62.12;99771.53;15274128;19;20017;-76
2023/02/09 14:37:32;;;;;;;4.00;2.83;;;;;;;4.01;62.76;99768.59;15278825;19;20014;-76
2023/02/09 14:43:03;;;;;;;3.25;2.88;;;;;;;4.14;63.21;99779.47;15275130;19;20391;-76
2023/02/09 14:48:29;;;;;;;5.63;3.10;;;;;;;4.08;62.85;99777.13;15271881;19;20025;-76
2023/02/09 14:53:58;;;;;;;4.03;3.00;;;;;;;4.16;61.80;99788.25;15277394;19;20042;-75
2023/02/09 14:59:30;;;;;;;3.30;2.95;;;;;;;4.16;62.63;99782.91;15277751;19;20043;-76
2023/02/09 15:04:56;;;;;;;3.40;2.70;;;;;;;4.15;63.55;99787.38;15289642;19;20022;-76
2023/02/09 15:10:32;;;;;;;5.47;3.25;;;;;;;4.18;65.27;99789.00;15289297;19;20006;-77
2023/02/09 15:15:57;;;;;;;4.35;3.33;;;;;;;4.14;64.13;99785.63;15293874;19;20041;-77
2023/02/09 15:21:21;;;;;;;3.60;3.30;;;;;;;3.25;83.80;99796.69;15282575;19;20823;-75
2023/02/09 15:26:49;;;;;;;4.55;3.90;;;;;;;2.75;100.00;99814.31;15292830;19;20010;-76
2023/02/09 15:32:21;;;;;;;4.97;4.32;;;;;;;2.11;100.00;99820.06;15290733;19;20017;-76
2023/02/09 15:37:49;;;;;;;4.80;4.30;;;;;;;1.91;100.00;99820.13;15289083;19;20021;-77
2023/02/09 15:48:59;;;;;;;7.97;4.72;;;;;;;1.71;100.00;99829.88;15288562;19;20011;-77
2023/02/09 15:54:26;;;;;;;6.57;4.35;;;;;;;1.59;100.00;99823.34;15285519;19;20033;-77
2023/02/09 16:00:02;;;;;;;7.13;4.80;;;;;;;1.44;100.00;99808.09;15282196;19;20025;-78
2023/02/09 16:05:29;;;;;;;6.50;4.35;;;;;;;1.30;100.00;99822.84;15280888;19;20033;-77
2023/02/09 16:10:54;;;;;;;5.88;4.82;;;;;;;1.14;100.00;99822.66;15279459;19;20027;-76
2023/02/09 16:16:23;;;;;;;5.65;4.55;;;;;;;0.90;100.00;99811.31;15286229;19;20022;-75
2023/02/09 16:21:50;;;;;;;6.22;4.60;;;;;;;0.79;100.00;99821.53;15283171;19;20014;-76
2023/02/09 16:27:24;;;;;;;6.57;5.13;;;;;;;0.69;100.00;99806.00;15284873;19;20105;-76
2023/02/09 16:32:51;;;;;;;7.72;5.50;;;;;;;0.52;100.00;99827.91;15287559;19;20010;-76
2023/02/09 16:38:19;;;;;;;6.65;4.97;;;;;;;0.15;100.00;99848.78;15283360;19;20025;-76
2023/02/09 16:43:44;;;;;;;8.57;4.85;;;;;;;0.02;100.00;99847.53;15280319;19;20015;-75
2023/02/09 16:49:27;;;;;;;6.95;4.70;;;;;;;-0.14;100.00;99851.72;15281415;19;20013;-75
2023/02/09 16:54:55;;;;;;;7.00;4.72;;;;;;;-0.29;100.00;99884.94;15281623;19;20011;-78
2023/02/09 17:05:49;;;;;;;5.85;5.18;;;;;;;-0.38;100.00;99876.38;15351139;19;20046;-76
2023/02/09 17:11:14;;;;;;;6.65;5.28;;;;;;;-0.58;100.00;99885.03;15279139;19;20017;-77
2023/02/09 17:16:43;;;;;;;6.00;5.05;;;;;;;-0.79;100.00;99874.28;15280378;19;20020;-77
2023/02/09 17:22:10;;;;;;;8.80;5.38;;;;;;;-0.90;100.00;99884.38;15276277;19;20014;-76
2023/02/09 17:27:35;;;;;;;9.25;7.32;;;;;;;-1.14;100.00;99886.09;15273645;19;20018;-75
2023/02/09 17:33:09;;;;;;;8.20;6.05;;;;;;;-1.21;100.00;99896.00;15277116;19;20010;-77
2023/02/09 17:38:39;;;;;;;6.55;5.90;;;;;;;-1.26;100.00;99888.22;15276630;19;20021;-76
2023/02/09 17:44:05;;;;;;;8.93;5.95;;;;;;;-1.35;100.00;99888.50;15276273;19;20011;-77
2023/02/09 17:49:45;;;;;;;8.88;6.07;;;;;;;-1.39;100.00;99881.59;15280135;19;20031;-76
2023/02/09 17:55:15;;;;;;;7.55;6.70;;;;;;;-1.45;100.00;99872.09;15278929;19;20048;-77
2023/02/09 18:00:47;;;;;;;8.25;6.30;;;;;;;-1.55;100.00;99879.44;15267706;19;20018;-76
2023/02/09 18:06:14;;;;;;;7.78;6.50;;;;;;;-1.59;100.00;99891.00;15270995;19;20014;-77
2023/02/09 18:12:06;;;;;;;7.57;6.07;;;;;;;-1.67;100.00;99887.75;15270565;19;20017;-77
2023/02/09 18:17:31;;;;;;;8.38;5.68;;;;;;;-1.70;100.00;99906.34;15286170;19;20025;-78
2023/02/09 18:22:55;;;;;;;6.78;6.03;;;;;;;-1.75;100.00;99905.63;15276053;19;20014;-78
2023/02/09 18:28:23;;;;;;;7.93;6.35;;;;;;;-1.82;100.00;99904.09;15279781;19;20100;-78
2023/02/09 18:33:47;;;;;;;7.82;6.50;;;;;;;-1.88;100.00;99911.28;15282005;19;20019;-78
2023/02/09 18:39:12;;;;;;;11.30;8.32;;;;;;;-1.92;100.00;99914.06;15294996;19;20584;-78
2023/02/09 18:44:39;;;;;;;12.13;8.30;;;;;;;-1.94;100.00;99906.16;15289345;19;20023;-79
2023/02/09 18:50:06;;;;;;;9.02;7.30;;;;;;;-1.98;100.00;99920.38;15293979;19;20487;-78
2023/02/09 18:55:33;;;;;;;8.15;6.65;;;;;;;-2.00;100.00;99911.63;15289492;19;20011;-79
2023/02/09 19:01:07;;;;;;;9.55;7.38;;;;;;;-2.05;100.00;99919.69;15291329;19;20014;-79
2023/02/09 19:06:43;;;;;;;10.68;8.02;;;;;;;-2.14;100.00;99934.94;15293253;19;20017;-78
2023/02/09 19:12:07;;;;;;;9.90;7.65;;;;;;;-2.19;100.00;99917.47;15288293;19;20010;-77
2023/02/09 19:17:35;;;;;;;9.40;8.23;;;;;;;-2.20;100.00;99922.75;15287210;19;20734;-78
2023/02/09 19:23:02;;;;;;;9.80;8.05;;;;;;;-2.21;100.00;99923.69;15291144;19;20018;-77
2023/02/09 19:28:27;;;;;;;12.77;8.55;;;;;;;-2.23;100.00;99936.94;15287085;19;20018;-78
2023/02/09 19:33:55;;;;;;;11.43;8.88;;;;;;;-2.25;100.00;99925.53;15287591;19;20017;-78
2023/02/09 19:39:20;;;;;;;10.05;7.63;;;;;;;-2.25;100.00;99929.97;15281955;19;20027;-79
2023/02/09 19:44:45;;;;;;;10.50;7.80;;;;;;;-2.26;100.00;99929.09;15293791;19;20023;-78
2023/02/09 19:50:14;;;;;;;9.52;7.75;;;;;;;-2.27;100.00;99929.13;15341037;19;20006;-80
2023/02/09 19:55:32;;;;;;;10.30;7.53;;;;;;;-2.30;100.00;99935.38;15308435;19;20086;-79
2023/02/09 20:01:05;;;;;;;8.35;6.65;;;;;;;-2.32;100.00;99937.19;15293652;19;20021;-78
2023/02/09 20:06:33;;;;;;;9.90;7.13;;;;;;;-2.37;100.00;99933.78;15301412;19;20027;-78
2023/02/09 20:11:57;;;;;;;10.00;7.40;;;;;;;-2.41;100.00;99933.03;15288540;19;20035;-78
2023/02/09 20:17:22;;;;;;;9.82;7.20;;;;;;;-2.45;100.00;99936.66;15291163;19;20021;-77
2023/02/09 20:22:49;;;;;;;9.10;6.95;;;;;;;-2.50;100.00;99920.94;15285642;19;20474;-78
2023/02/09 20:28:15;;;;;;;9.68;6.72;;;;;;;-2.56;100.00;99921.13;15280597;19;20053;-77
2023/02/09 20:33:42;;;;;;;9.05;6.80;;;;;;;-2.59;100.00;99933.53;15281253;19;20477;-77
2023/02/09 20:39:14;;;;;;;9.60;7.05;;;;;;;-2.64;100.00;99936.25;15284039;19;20010;-76
2023/02/09 20:50:18;;;;;;;7.40;6.30;;;;;;;-2.76;100.00;99947.16;15289961;19;20014;-77
2023/02/09 20:55:49;;;;;;;7.50;6.57;;;;;;;-2.81;100.00;99944.63;15294277;19;21060;-77
2023/02/09 21:01:22;;;;;;;9.73;6.53;;;;;;;-2.86;100.00;99952.66;15333342;19;20053;-82
2023/02/09 21:06:47;;;;;;;8.43;6.90;;;;;;;-2.93;100.00;99959.00;15290468;19;20082;-82
2023/02/09 21:12:14;;;;;;;8.25;6.72;;;;;;;-2.98;100.00;99956.47;15289634;19;20010;-79
2023/02/09 21:17:46;;;;;;;8.02;6.63;;;;;;;-3.03;100.00;99955.69;15288501;19;20014;-81
2023/02/09 21:23:12;;;;;;;10.23;7.75;;;;;;;-3.08;100.00;99967.25;15284583;19;20094;-81
2023/02/09 21:28:40;;;;;;;9.13;7.13;;;;;;;-3.16;100.00;99951.63;15280934;19;20025;-80
2023/02/09 21:34:04;;;;;;;8.55;7.05;;;;;;;-3.19;100.00;99964.91;15286500;19;20015;-80
2023/02/09 21:39:30;;;;;;;9.07;7.38;;;;;;;-3.24;100.00;99962.38;15284508;19;20159;-80
2023/02/09 21:44:58;;;;;;;9.93;6.90;;;;;;;-3.33;100.00;99962.56;15279408;19;20094;-81
2023/02/09 21:50:25;;;;;;;9.68;7.25;;;;;;;-3.38;100.00;99957.41;15281025;19;20430;-79
2023/02/09 21:55:49;;;;;;;8.52;6.60;;;;;;;-3.40;100.00;99956.56;15288637;19;20010;-81
2023/02/09 22:01:23;;;;;;;8.80;6.65;;;;;;;-3.43;100.00;99957.50;15281311;19;20014;-82
2023/02/09 22:06:48;;;;;;;7.70;6.35;;;;;;;-3.45;100.00;99959.31;15293448;19;20017;-78
2023/02/09 22:12:14;;;;;;;7.25;6.30;;;;;;;-3.46;100.00;99962.00;15293110;19;20506;-81
2023/02/09 22:17:42;;;;;;;10.52;7.10;;;;;;;-3.48;100.00;99969.94;15278468;19;20018;-79
2023/02/09 22:23:08;;;;;;;9.90;7.03;;;;;;;-3.50;100.00;99986.66;15288179;19;20014;-81
2023/02/09 22:28:34;;;;;;;9.95;7.50;;;;;;;-3.57;100.00;99985.94;15330581;19;20024;-80
2023/02/09 22:34:03;;;;;;;7.78;6.88;;;;;;;-3.60;100.00;99994.78;15289329;19;20094;-79
2023/02/09 22:39:28;;;;;;;9.55;6.45;;;;;;;-3.61;100.00;99995.69;15274542;19;20462;-79
2023/02/09 22:44:52;;;;;;;8.35;7.30;;;;;;;-3.61;100.00;100013.25;15277470;19;20017;-79
2023/02/09 22:50:20;;;;;;;8.32;6.60;;;;;;;-3.63;100.00;100012.41;15275872;19;20011;-80
2023/02/09 22:55:47;;;;;;;7.97;6.85;;;;;;;-3.63;100.00;100013.28;15282343;19;20014;-79
2023/02/09 23:01:19;;;;;;;8.43;6.70;;;;;;;-3.65;100.00;100006.31;15277257;19;20006;-80
2023/02/09 23:06:47;;;;;;;8.00;6.85;;;;;;;-3.68;100.00;100004.63;15278206;19;20023;-81
2023/02/09 23:12:12;;;;;;;9.00;7.10;;;;;;;-3.70;100.00;100005.56;15284545;19;20078;-80
2023/02/09 23:17:38;;;;;;;9.18;6.85;;;;;;;-3.71;100.00;100004.69;15287554;19;20039;-80
2023/02/09 23:23:08;;;;;;;7.55;6.43;;;;;;;-3.73;100.00;100017.88;15297034;19;20014;-79
2023/02/09 23:28:33;;;;;;;8.90;7.05;;;;;;;-3.76;100.00;100019.69;15296585;19;20025;-79
2023/02/09 23:33:58;;;;;;;8.50;6.93;;;;;;;-3.80;100.00;100011.00;15299292;19;20007;-79
2023/02/09 23:39:26;;;;;;;8.73;7.10;;;;;;;-3.83;100.00;100011.09;15294499;19;20019;-78
2023/02/09 23:44:51;;;;;;;9.57;7.20;;;;;;;-3.88;100.00;100011.13;15294772;19;20501;-79
2023/02/09 23:50:16;;;;;;;8.65;6.97;;;;;;;-3.92;100.00;100017.38;15293687;19;20079;-79
2023/02/09 23:55:43;;;;;;;7.78;6.65;;;;;;;-3.96;100.00;100020.97;15294561;19;20668;-78
